Time;durP1;ratioP1;P1;durP2;ratioP2;P2;SDS_P1;SDS_P2;PMS_P1;PMS_P2;Temp;Humidity;BMP_temperature;BMP_pressure;BME280_temperature;BME280_humidity;BME280_pressure;Samples;Min_cycle;Max_cycle;Signal;HPM_P1;HPM_P2
2022/03/01 00:01:38;;;;;;;10.60;6.40;;;;;;;-0.08;82.72;101787.78;5093218;28;20071;-70
2022/03/01 00:04:07;;;;;;;11.82;6.78;;;;;;;-0.02;81.81;101792.16;5074682;28;20136;-70
2022/03/01 00:06:35;;;;;;;10.93;6.57;;;;;;;-0.08;82.31;101785.16;5092867;28;20420;-71
2022/03/01 00:09:03;;;;;;;12.70;7.68;;;;;;;-0.09;82.21;101785.13;5074698;28;20052;-72
2022/03/01 00:11:33;;;;;;;9.10;6.18;;;;;;;-0.03;81.60;101786.03;5093169;28;20079;-71
2022/03/01 00:14:01;;;;;;;12.55;6.45;;;;;;;0.01;81.06;101786.09;5092919;28;20047;-72
2022/03/01 00:16:31;;;;;;;11.30;6.15;;;;;;;0.07;80.87;101786.13;5093132;28;20040;-71
2022/03/01 00:19:00;;;;;;;10.35;6.40;;;;;;;-0.03;81.46;101788.66;5092471;28;20051;-72
2022/03/01 00:21:29;;;;;;;9.95;6.28;;;;;;;0.05;80.74;101777.38;5093240;28;20144;-71
2022/03/01 00:23:58;;;;;;;12.80;6.32;;;;;;;0.08;80.17;101780.88;5092863;28;20044;-71
2022/03/01 00:26:26;;;;;;;11.35;6.47;;;;;;;0.05;80.71;101778.25;5093197;28;20048;-71
2022/03/01 00:28:56;;;;;;;9.73;6.05;;;;;;;0.04;80.90;101771.25;5093075;28;20036;-70
2022/03/01 00:31:24;;;;;;;10.38;5.93;;;;;;;0.05;80.62;101777.38;5092920;28;20587;-72
2022/03/01 00:33:52;;;;;;;10.55;6.00;;;;;;;-0.04;81.25;101765.94;5092698;28;20047;-71
2022/03/01 00:36:21;;;;;;;10.02;6.50;;;;;;;-0.03;81.07;101779.91;5092566;28;20046;-72
2022/03/01 00:38:49;;;;;;;13.18;6.40;;;;;;;0.01;80.75;101770.34;5074481;28;20048;-71
2022/03/01 00:41:23;;;;;;;10.45;6.57;;;;;;;-0.02;81.08;101769.44;5092580;28;20456;-71
2022/03/01 00:43:51;;;;;;;9.73;6.00;;;;;;;-0.03;81.28;101772.94;5092582;28;20130;-70
2022/03/01 00:46:22;;;;;;;11.48;6.63;;;;;;;-0.09;81.51;101772.03;5092586;28;20048;-71
2022/03/01 00:48:51;;;;;;;9.60;5.65;;;;;;;0.01;81.07;101775.59;5092944;28;20566;-71
2022/03/01 00:51:19;;;;;;;10.82;6.20;;;;;;;-0.04;81.51;101768.56;5092204;28;20044;-70
2022/03/01 00:53:48;;;;;;;11.65;6.75;;;;;;;-0.02;81.66;101771.19;5092448;28;20056;-71
2022/03/01 00:56:16;;;;;;;11.85;6.57;;;;;;;-0.04;81.74;101768.56;5092395;28;20047;-71
2022/03/01 00:58:45;;;;;;;12.40;6.43;;;;;;;-0.05;82.17;101765.94;5092732;28;20119;-70
2022/03/01 01:01:13;;;;;;;10.63;6.13;;;;;;;-0.14;82.46;101761.47;5092122;28;20089;-70
2022/03/01 01:03:43;;;;;;;10.77;6.80;;;;;;;-0.12;82.61;101762.38;5092374;28;20127;-70
2022/03/01 01:06:11;;;;;;;11.80;6.45;;;;;;;-0.15;82.84;101757.09;5092324;28;20044;-72
2022/03/01 01:08:40;;;;;;;10.35;6.15;;;;;;;-0.20;83.24;101761.44;5096124;28;20086;-71
2022/03/01 01:11:10;;;;;;;14.75;6.55;;;;;;;-0.24;83.92;101771.88;5077810;28;20055;-71
2022/03/01 01:13:38;;;;;;;9.75;6.90;;;;;;;-0.33;84.96;101767.44;5096419;28;20046;-72
2022/03/01 01:16:06;;;;;;;10.43;6.95;;;;;;;-0.23;84.06;101771.03;5095893;28;20044;-72
2022/03/01 01:18:37;;;;;;;13.52;6.63;;;;;;;-0.24;84.37;101761.41;5096372;28;20531;-72
2022/03/01 01:21:06;;;;;;;11.27;6.40;;;;;;;-0.26;83.87;101771.88;5095932;28;20093;-73
2022/03/01 01:23:35;;;;;;;10.23;6.40;;;;;;;-0.30;84.50;101767.47;5095872;28;20090;-72
2022/03/01 01:26:03;;;;;;;10.05;6.40;;;;;;;-0.18;83.24;101764.97;5095489;28;20042;-74
2022/03/01 01:28:32;;;;;;;11.93;6.75;;;;;;;-0.34;84.15;101773.56;5096003;28;20052;-71
2022/03/01 01:31:00;;;;;;;10.15;6.50;;;;;;;-0.30;83.86;101767.47;5096036;28;20040;-72
2022/03/01 01:33:28;;;;;;;11.38;6.28;;;;;;;-0.19;82.26;101763.22;5095542;28;20048;-71
2022/03/01 01:35:56;;;;;;;13.48;6.43;;;;;;;-0.34;83.67;101763.94;5095880;28;20499;-71
2022/03/01 01:38:26;;;;;;;11.55;6.20;;;;;;;-0.43;84.25;101766.50;5095528;28;20127;-72
2022/03/01 01:40:54;;;;;;;9.18;5.80;;;;;;;-0.40;84.21;101768.25;5095749;28;20382;-71
2022/03/01 01:43:22;;;;;;;10.60;6.20;;;;;;;-0.35;83.28;101764.81;5095196;28;20040;-71
2022/03/01 01:45:51;;;;;;;10.38;6.28;;;;;;;-0.50;84.82;101762.03;5095609;28;20477;-72
2022/03/01 01:48:24;;;;;;;12.15;6.50;;;;;;;-0.42;84.16;101763.00;5095417;28;20076;-72
2022/03/01 01:50:52;;;;;;;10.07;6.13;;;;;;;-0.36;83.79;101759.56;5095362;28;20106;-71
2022/03/01 01:53:22;;;;;;;12.57;6.43;;;;;;;-0.38;83.48;101758.69;5095314;28;20497;-71
2022/03/01 01:55:51;;;;;;;10.38;5.43;;;;;;;-0.46;83.46;101753.38;5095389;28;20040;-71
2022/03/01 01:58:19;;;;;;;9.95;5.60;;;;;;;-0.38;83.36;101756.06;5095165;28;20040;-71
2022/03/01 02:00:48;;;;;;;10.70;5.78;;;;;;;-0.51;83.98;101752.44;5095418;28;20040;-71
2022/03/01 02:03:16;;;;;;;11.27;5.60;;;;;;;-0.44;83.81;101745.50;5094744;28;20122;-71
2022/03/01 02:05:45;;;;;;;11.18;5.47;;;;;;;-0.43;83.69;101752.50;5095414;28;20495;-71
2022/03/01 02:08:13;;;;;;;11.07;6.00;;;;;;;-0.42;83.05;101754.25;5095134;28;20089;-72
2022/03/01 02:10:41;;;;;;;10.02;5.50;;;;;;;-0.42;83.34;101751.63;5095264;28;20101;-71
2022/03/01 02:13:11;;;;;;;7.53;4.90;;;;;;;-0.37;82.59;101742.97;5095034;28;20119;-71
2022/03/01 02:15:39;;;;;;;10.70;5.82;;;;;;;-0.41;82.54;101750.75;5095153;28;20044;-72
2022/03/01 02:18:08;;;;;;;11.82;5.53;;;;;;;-0.45;83.40;101749.00;5093852;28;20524;-71
2022/03/01 02:20:38;;;;;;;9.57;5.07;;;;;;;-0.43;82.72;101747.25;5094770;28;20044;-70
2022/03/01 02:23:06;;;;;;;9.02;5.63;;;;;;;-0.47;82.44;101749.00;5094560;28;20047;-78
2022/03/01 02:25:34;;;;;;;9.13;5.82;;;;;;;-0.40;82.10;101752.53;5094940;28;20132;-70
2022/03/01 02:28:03;;;;;;;9.75;5.65;;;;;;;-0.46;82.14;101742.88;5094588;28;20044;-70
2022/03/01 02:30:32;;;;;;;10.55;5.90;;;;;;;-0.45;82.27;101743.75;5094525;28;20052;-70
2022/03/01 02:33:00;;;;;;;10.38;5.65;;;;;;;-0.45;81.53;101744.63;5094932;28;20044;-71
2022/03/01 02:35:29;;;;;;;11.07;5.75;;;;;;;-0.48;81.59;101743.69;5094653;28;20389;-71
2022/03/01 02:37:59;;;;;;;8.55;5.20;;;;;;;-0.41;81.31;101746.41;5094411;28;20051;-71
2022/03/01 02:40:27;;;;;;;8.63;5.70;;;;;;;-0.47;81.27;101743.75;5094047;28;20567;-72
2022/03/01 02:42:55;;;;;;;12.32;5.93;;;;;;;-0.47;81.29;101750.72;5094359;28;20055;-72
2022/03/01 02:45:26;;;;;;;10.35;5.60;;;;;;;-0.55;81.98;101739.28;5094293;28;20070;-72
2022/03/01 02:47:54;;;;;;;12.68;5.60;;;;;;;-0.54;81.73;101743.66;5094577;28;20493;-71
2022/03/01 02:50:23;;;;;;;8.63;5.25;;;;;;;-0.56;81.92;101742.78;5094149;28;20040;-71
2022/03/01 02:52:53;;;;;;;10.32;5.25;;;;;;;-0.57;82.27;101739.28;5094536;28;20050;-72
2022/03/01 02:55:23;;;;;;;10.57;5.72;;;;;;;-0.64;82.58;101727.88;5094199;28;20159;-71
2022/03/01 02:57:51;;;;;;;8.63;5.25;;;;;;;-0.65;82.65;101735.72;5093998;28;20048;-73
2022/03/01 03:00:19;;;;;;;9.95;5.55;;;;;;;-0.73;83.24;101732.13;5093733;28;20040;-72
2022/03/01 03:02:48;;;;;;;8.20;5.15;;;;;;;-0.75;83.43;101739.13;5093939;28;20077;-71
2022/03/01 03:05:16;;;;;;;10.40;5.40;;;;;;;-0.60;82.40;101740.13;5093888;28;20060;-70
2022/03/01 03:07:44;;;;;;;10.13;5.32;;;;;;;-0.67;82.59;101740.94;5094087;28;20044;-70
2022/03/01 03:10:13;;;;;;;9.63;5.20;;;;;;;-0.70;82.89;101742.63;5093817;28;20076;-72
2022/03/01 03:12:45;;;;;;;13.65;6.35;;;;;;;-0.67;82.62;101735.69;5094109;28;20044;-71
2022/03/01 03:15:13;;;;;;;8.55;4.85;;;;;;;-0.63;82.11;101739.22;5093745;28;20044;-73
2022/03/01 03:17:44;;;;;;;10.05;5.25;;;;;;;-0.65;82.19;101744.44;5093952;28;20448;-72
2022/03/01 03:20:13;;;;;;;8.93;4.53;;;;;;;-0.57;81.43;101741.03;5093584;28;20481;-71
2022/03/01 03:22:42;;;;;;;9.93;5.20;;;;;;;-0.59;81.77;101741.88;5093484;28;20052;-72
2022/03/01 03:25:10;;;;;;;9.57;5.25;;;;;;;-0.56;81.13;101745.41;5093574;28;20492;-79
2022/03/01 03:27:39;;;;;;;9.52;4.70;;;;;;;-0.57;80.81;101743.66;5093790;28;20126;-71
2022/03/01 03:30:10;;;;;;;9.15;4.90;;;;;;;-0.61;80.52;101746.22;5093419;28;20063;-71
2022/03/01 03:32:39;;;;;;;9.63;4.80;;;;;;;-0.62;80.46;101747.09;5093835;28;20126;-71
2022/03/01 03:35:08;;;;;;;11.68;5.35;;;;;;;-0.62;80.81;101746.22;5093605;28;20055;-71
2022/03/01 03:37:37;;;;;;;8.55;4.78;;;;;;;-0.65;80.99;101744.44;5093532;28;20043;-72
2022/03/01 03:40:07;;;;;;;8.35;4.70;;;;;;;-0.56;79.89;101748.03;5093686;28;20144;-73
2022/03/01 03:42:36;;;;;;;9.55;4.63;;;;;;;-0.65;80.29;101740.97;5093140;28;20488;-73
2022/03/01 03:45:09;;;;;;;7.35;4.68;;;;;;;-0.66;80.11;101734.84;5093615;28;20043;-72
2022/03/01 03:47:38;;;;;;;9.48;4.35;;;;;;;-0.68;79.47;101741.78;5093667;28;20044;-72
2022/03/01 03:50:09;;;;;;;6.95;4.18;;;;;;;-0.66;79.03;101737.47;5093428;28;20473;-73
2022/03/01 03:52:40;;;;;;;7.03;4.18;;;;;;;-0.68;79.55;101735.66;5093173;28;20071;-73
2022/03/01 03:55:10;;;;;;;9.52;4.93;;;;;;;-0.68;79.23;101735.66;5093456;28;20046;-72
2022/03/01 03:57:40;;;;;;;7.72;4.32;;;;;;;-0.67;78.40;101732.22;5093330;28;20064;-73
2022/03/01 04:00:15;;;;;;;7.30;4.50;;;;;;;-0.81;79.59;101739.91;5075179;28;20466;-73
2022/03/01 04:02:45;;;;;;;10.20;4.53;;;;;;;-0.68;78.54;101738.28;5093052;28;20119;-72
2022/03/01 04:05:15;;;;;;;11.52;4.85;;;;;;;-0.70;78.30;101735.66;5093051;28;20044;-73
2022/03/01 04:07:45;;;;;;;8.70;4.10;;;;;;;-0.67;78.40;101733.09;5074866;28;20048;-72
2022/03/01 04:10:14;;;;;;;8.85;4.40;;;;;;;-0.64;77.87;101733.09;5092620;28;20048;-76
2022/03/01 04:12:43;;;;;;;8.13;4.30;;;;;;;-0.62;77.65;101735.72;5092992;28;20401;-71
2022/03/01 04:15:13;;;;;;;8.10;4.63;;;;;;;-0.66;77.81;101737.47;5093188;28;20045;-72
2022/03/01 04:17:42;;;;;;;7.85;4.75;;;;;;;-0.70;77.73;101733.03;5092511;28;20551;-72
2022/03/01 04:20:11;;;;;;;8.25;4.70;;;;;;;-0.76;78.49;101732.13;5093076;28;20048;-71
2022/03/01 04:22:40;;;;;;;10.70;4.60;;;;;;;-0.79;78.14;101725.09;5092792;28;20461;-71
2022/03/01 04:25:10;;;;;;;10.93;4.47;;;;;;;-0.80;78.61;101736.44;5093046;28;20040;-72
2022/03/01 04:27:40;;;;;;;7.65;4.47;;;;;;;-0.78;78.01;101729.47;5092821;28;20060;-71
2022/03/01 04:30:11;;;;;;;7.65;4.53;;;;;;;-0.84;78.73;101729.41;5092962;28;20068;-73
2022/03/01 04:32:41;;;;;;;9.75;5.13;;;;;;;-0.92;78.73;101728.47;5093026;28;20044;-74
2022/03/01 04:35:11;;;;;;;8.70;4.85;;;;;;;-0.89;78.32;101731.09;5092999;28;20039;-74
2022/03/01 04:37:41;;;;;;;9.15;4.80;;;;;;;-0.89;78.48;101731.09;5092605;28;20048;-74
2022/03/01 04:40:12;;;;;;;9.38;4.68;;;;;;;-0.87;78.29;101724.13;5093061;28;20036;-70
2022/03/01 04:42:41;;;;;;;9.00;4.50;;;;;;;-1.02;79.19;101739.69;5094871;28;20059;-71
2022/03/01 04:45:11;;;;;;;12.18;4.90;;;;;;;-1.12;80.34;101740.47;5096915;28;20085;-71
2022/03/01 04:47:41;;;;;;;10.48;4.97;;;;;;;-1.02;79.31;101742.31;5096469;28;20044;-71
2022/03/01 04:50:11;;;;;;;9.77;4.80;;;;;;;-1.02;79.46;101742.31;5096848;28;20044;-71
2022/03/01 04:52:40;;;;;;;8.88;5.05;;;;;;;-1.00;79.06;101738.84;5096376;28;20093;-70
2022/03/01 04:55:10;;;;;;;8.40;4.97;;;;;;;-1.09;79.02;101743.09;5078653;28;20047;-70
2022/03/01 04:57:38;;;;;;;7.90;4.80;;;;;;;-1.11;79.95;101740.47;5096253;28;20477;-71
2022/03/01 05:00:10;;;;;;;8.50;4.82;;;;;;;-1.14;79.59;101737.84;5096549;28;20558;-72
2022/03/01 05:02:43;;;;;;;10.13;4.60;;;;;;;-1.12;79.13;101727.38;5096315;28;20047;-72
2022/03/01 05:05:12;;;;;;;11.07;4.57;;;;;;;-1.08;79.09;101727.41;5096597;28;20276;-72
2022/03/01 05:07:42;;;;;;;9.57;5.25;;;;;;;-1.06;79.02;101728.31;5096117;28;20123;-72
2022/03/01 05:10:13;;;;;;;10.95;5.18;;;;;;;-1.21;79.51;101717.66;5096048;28;20040;-72
2022/03/01 05:12:43;;;;;;;10.55;4.90;;;;;;;-1.17;79.60;101722.06;5095619;28;20496;-73
2022/03/01 05:15:12;;;;;;;8.65;5.10;;;;;;;-1.20;79.64;101715.06;5096342;28;20047;-73
2022/03/01 05:17:42;;;;;;;10.40;5.13;;;;;;;-1.12;78.84;101724.75;5095856;28;20051;-73
2022/03/01 05:20:13;;;;;;;8.68;5.00;;;;;;;-1.14;78.96;101723.88;5077985;28;20064;-73
2022/03/01 05:22:43;;;;;;;10.48;4.88;;;;;;;-1.19;78.94;101726.41;5095875;28;20075;-72
2022/03/01 05:25:13;;;;;;;8.00;4.35;;;;;;;-1.07;78.52;101726.53;5078094;28;20389;-73
2022/03/01 05:27:43;;;;;;;10.65;5.32;;;;;;;-1.06;78.30;101732.66;5095554;28;20040;-72
2022/03/01 05:30:13;;;;;;;11.38;5.13;;;;;;;-1.05;77.82;101726.59;5095632;28;20127;-72
2022/03/01 05:32:46;;;;;;;8.30;4.57;;;;;;;-1.14;78.64;101729.09;5104298;28;20040;-72
2022/03/01 05:35:16;;;;;;;10.25;5.35;;;;;;;-1.07;78.25;101730.91;5102362;28;20051;-73
2022/03/01 05:37:46;;;;;;;10.75;5.05;;;;;;;-1.10;78.25;101723.03;5104169;28;20047;-72
2022/03/01 05:40:15;;;;;;;10.77;5.25;;;;;;;-1.02;77.71;101730.09;5096126;28;20194;-72
2022/03/01 05:42:44;;;;;;;10.02;4.72;;;;;;;-1.01;77.70;101730.97;5095244;28;20379;-71
2022/03/01 05:45:13;;;;;;;11.43;5.20;;;;;;;-1.03;77.75;101723.09;5111937;28;20130;-72
2022/03/01 05:47:44;;;;;;;8.30;4.25;;;;;;;-1.11;78.24;101723.88;5115724;28;20068;-71
2022/03/01 05:50:13;;;;;;;8.50;4.70;;;;;;;-0.95;77.52;101720.56;5116156;28;20118;-69
2022/03/01 05:52:46;;;;;;;11.82;5.47;;;;;;;-0.94;77.09;101722.34;5115206;28;20054;-71
2022/03/01 05:55:14;;;;;;;11.98;5.05;;;;;;;-0.91;77.00;101722.34;5115874;28;20127;-70
2022/03/01 05:57:43;;;;;;;8.60;4.50;;;;;;;-0.91;76.48;101725.84;5115369;28;20058;-68
2022/03/01 06:00:15;;;;;;;9.38;4.65;;;;;;;-0.82;76.24;101730.31;5101765;28;20067;-68
2022/03/01 06:02:46;;;;;;;9.45;4.25;;;;;;;-0.79;76.10;101732.06;5102861;28;20094;-66
2022/03/01 06:05:15;;;;;;;9.85;5.03;;;;;;;-0.70;74.95;101733.03;5095323;28;20044;-67
2022/03/01 06:07:45;;;;;;;9.48;4.60;;;;;;;-0.69;75.23;101729.53;5094719;28;20072;-67
2022/03/01 06:10:14;;;;;;;10.40;4.68;;;;;;;-0.63;74.78;101732.22;5095137;28;20046;-66
2022/03/01 06:12:42;;;;;;;11.52;4.93;;;;;;;-0.60;74.43;101731.38;5094728;28;20412;-67
2022/03/01 06:15:13;;;;;;;9.70;4.63;;;;;;;-0.59;74.62;101736.63;5097562;28;20043;-67
2022/03/01 06:17:42;;;;;;;9.68;5.00;;;;;;;-0.48;74.06;101734.13;5114567;28;20054;-69
2022/03/01 06:20:12;;;;;;;9.65;4.50;;;;;;;-0.45;73.86;101733.28;5114886;28;20043;-73
2022/03/01 06:22:42;;;;;;;9.35;4.97;;;;;;;-0.40;73.60;101731.53;5100801;28;20389;-68
2022/03/01 06:25:11;;;;;;;11.60;4.50;;;;;;;-0.27;73.46;101736.03;5110169;28;20119;-67
2022/03/01 06:27:40;;;;;;;14.05;5.38;;;;;;;-0.23;72.82;101742.19;5100785;28;20089;-68
2022/03/01 06:30:11;;;;;;;9.18;4.80;;;;;;;-0.19;71.86;101731.75;5110604;28;20484;-66
2022/03/01 06:32:40;;;;;;;11.52;4.90;;;;;;;-0.13;72.18;101733.50;5113856;28;20067;-68
2022/03/01 06:35:13;;;;;;;10.20;4.88;;;;;;;-0.09;72.03;101730.06;5115498;28;20389;-69
2022/03/01 06:37:46;;;;;;;10.00;5.00;;;;;;;-0.10;72.80;101726.53;5096636;28;20074;-68
2022/03/01 06:40:14;;;;;;;11.55;5.30;;;;;;;0.04;72.02;101728.38;5114810;28;20055;-68
2022/03/01 06:42:43;;;;;;;8.43;4.45;;;;;;;0.24;70.39;101726.75;5114613;28;20092;-67
2022/03/01 06:45:13;;;;;;;8.35;4.10;;;;;;;0.26;70.48;101725.00;5115061;28;20031;-68
2022/03/01 06:47:42;;;;;;;7.57;4.13;;;;;;;0.29;69.78;101722.44;5114621;28;20050;-68
2022/03/01 06:50:13;;;;;;;7.30;4.18;;;;;;;0.39;69.91;101721.59;5114867;28;20040;-67
2022/03/01 06:52:43;;;;;;;6.80;4.05;;;;;;;0.44;69.42;101729.47;5114644;28;20469;-66
2022/03/01 06:55:11;;;;;;;9.15;4.38;;;;;;;0.45;69.30;101716.34;5115993;28;20047;-70
2022/03/01 06:57:40;;;;;;;8.65;4.35;;;;;;;0.55;68.57;101739.16;5114409;28;20047;-70
2022/03/01 07:00:10;;;;;;;8.38;4.13;;;;;;;0.50;68.59;101721.63;5114505;28;20127;-69
2022/03/01 07:02:39;;;;;;;12.88;4.55;;;;;;;0.55;68.35;101719.91;5096181;28;20044;-71
2022/03/01 07:05:10;;;;;;;11.90;4.63;;;;;;;0.62;68.09;101719.06;5113609;28;20400;-69
2022/03/01 07:07:41;;;;;;;9.07;3.92;;;;;;;0.73;67.23;101721.72;5114138;28;20393;-70
2022/03/01 07:10:14;;;;;;;8.98;4.53;;;;;;;0.73;67.31;101719.97;5096632;28;20054;-70
2022/03/01 07:12:43;;;;;;;8.95;3.97;;;;;;;0.80;67.10;101716.50;5116192;28;20039;-70
2022/03/01 07:15:12;;;;;;;8.13;4.07;;;;;;;0.85;66.67;101719.13;5114454;28;20122;-68
2022/03/01 07:17:46;;;;;;;9.88;4.22;;;;;;;0.95;66.21;101714.78;5114251;28;20060;-70
2022/03/01 07:20:15;;;;;;;7.40;3.67;;;;;;;0.96;66.33;101716.53;5113979;28;20097;-68
2022/03/01 07:22:43;;;;;;;8.65;3.88;;;;;;;0.93;66.41;101695.50;5114088;28;20036;-69
2022/03/01 07:25:14;;;;;;;8.68;4.00;;;;;;;1.03;65.88;101705.16;5114196;28;20044;-71
2022/03/01 07:27:49;;;;;;;9.63;4.43;;;;;;;1.11;65.48;101711.31;5113999;28;20035;-70
2022/03/01 07:30:18;;;;;;;8.98;4.20;;;;;;;1.21;65.61;101706.94;5113966;28;20048;-67
2022/03/01 07:32:46;;;;;;;9.02;4.22;;;;;;;1.33;65.21;101704.31;5113464;28;20050;-69
2022/03/01 07:35:16;;;;;;;9.65;4.22;;;;;;;1.43;64.62;101706.97;5114502;28;20039;-71
2022/03/01 07:37:47;;;;;;;8.23;4.10;;;;;;;1.40;64.50;101698.19;5113688;28;20050;-71
2022/03/01 07:40:21;;;;;;;8.48;3.70;;;;;;;1.54;64.31;101696.44;5114194;28;20039;-68
2022/03/01 07:42:50;;;;;;;7.38;3.60;;;;;;;1.58;63.49;101705.22;5114084;28;20089;-68
2022/03/01 07:45:20;;;;;;;7.90;3.75;;;;;;;1.64;63.46;101700.84;5113616;28;20481;-67
2022/03/01 07:47:50;;;;;;;10.88;4.38;;;;;;;1.68;63.87;101697.31;5114072;28;20070;-69
2022/03/01 07:50:19;;;;;;;15.15;5.30;;;;;;;1.72;62.83;101699.06;5113426;28;20520;-68
2022/03/01 07:52:50;;;;;;;11.52;5.00;;;;;;;1.80;62.83;101700.81;5113332;28;20040;-68
2022/03/01 07:55:20;;;;;;;9.73;4.70;;;;;;;1.84;62.51;101698.19;5095632;28;20126;-68
2022/03/01 07:57:51;;;;;;;13.48;5.75;;;;;;;1.88;62.20;101696.44;5113707;28;20072;-68
2022/03/01 08:00:21;;;;;;;11.23;5.82;;;;;;;1.95;62.04;101700.81;5113886;28;20050;-68
2022/03/01 08:02:53;;;;;;;8.48;4.25;;;;;;;1.97;61.25;101704.31;5113628;28;20138;-68
2022/03/01 08:05:22;;;;;;;8.18;4.20;;;;;;;1.98;61.20;101692.91;5113713;28;20043;-68
2022/03/01 08:07:56;;;;;;;9.68;4.88;;;;;;;2.18;61.32;101703.38;5113889;28;20040;-68
2022/03/01 08:10:26;;;;;;;13.93;5.28;;;;;;;2.28;61.70;101700.72;5113874;28;20051;-68
2022/03/01 08:12:55;;;;;;;9.85;4.82;;;;;;;2.51;60.67;101703.28;5113441;28;20085;-67
2022/03/01 08:15:28;;;;;;;8.88;4.63;;;;;;;2.61;59.88;101698.84;5113404;28;20585;-68
2022/03/01 08:17:59;;;;;;;6.55;3.40;;;;;;;2.64;58.97;101700.59;5117184;28;20055;-69
2022/03/01 08:20:28;;;;;;;8.00;3.15;;;;;;;2.58;57.47;101704.09;5117624;28;20043;-67
2022/03/01 08:22:56;;;;;;;5.88;2.85;;;;;;;2.57;57.48;101699.72;5117551;28;20043;-69
2022/03/01 08:25:26;;;;;;;8.15;3.53;;;;;;;2.72;57.71;101694.41;5117790;28;20043;-68
2022/03/01 08:27:58;;;;;;;7.05;3.00;;;;;;;2.74;56.74;101690.00;5099181;28;20055;-68
2022/03/01 08:30:26;;;;;;;5.45;2.53;;;;;;;2.84;56.11;101696.97;5117627;28;20101;-68
2022/03/01 08:32:55;;;;;;;6.28;3.17;;;;;;;2.86;55.56;101711.00;5117348;28;20047;-69
2022/03/01 08:35:24;;;;;;;6.18;2.50;;;;;;;2.95;54.86;101693.38;5117636;28;20057;-69
2022/03/01 08:37:52;;;;;;;7.35;2.25;;;;;;;3.11;53.79;101681.88;5117232;28;20071;-69
2022/03/01 08:40:23;;;;;;;4.95;2.25;;;;;;;3.09;52.33;101697.69;5117304;28;20067;-68
2022/03/01 08:42:52;;;;;;;4.82;2.08;;;;;;;3.17;52.46;101679.16;5116925;28;20050;-69
2022/03/01 08:45:22;;;;;;;4.85;2.10;;;;;;;3.23;51.96;101683.53;5117537;28;20055;-69
2022/03/01 08:47:52;;;;;;;5.57;2.47;;;;;;;3.29;51.96;101684.38;5116698;28;20040;-69
2022/03/01 08:50:20;;;;;;;4.18;2.25;;;;;;;3.44;51.64;101694.78;5117354;28;20040;-68
2022/03/01 08:53:09;;;;;;;8.18;2.58;;;;;;;3.32;50.86;101668.53;5117291;28;20042;-68
2022/03/01 08:55:37;;;;;;;5.28;2.22;;;;;;;3.36;50.20;101667.59;5116983;28;20035;-71
2022/03/01 08:58:07;;;;;;;6.63;2.47;;;;;;;3.47;49.48;101678.06;5116786;28;20051;-68
2022/03/01 09:00:36;;;;;;;4.45;2.13;;;;;;;3.47;49.84;101670.13;5116894;28;20048;-69
2022/03/01 09:03:05;;;;;;;6.15;2.92;;;;;;;3.62;49.14;101671.78;5117233;28;20093;-69
2022/03/01 09:05:34;;;;;;;4.80;1.90;;;;;;;3.64;47.32;101675.28;5098773;28;20071;-69
2022/03/01 09:08:03;;;;;;;4.35;1.95;;;;;;;3.59;46.64;101666.53;5116949;28;20043;-69
2022/03/01 09:10:31;;;;;;;5.00;2.00;;;;;;;3.62;45.13;101664.75;5116645;28;20046;-69
2022/03/01 09:13:00;;;;;;;4.32;1.92;;;;;;;3.72;44.54;101669.03;5116636;28;20039;-67
2022/03/01 09:15:32;;;;;;;4.22;2.03;;;;;;;3.71;43.93;101653.22;5116515;28;20043;-67
2022/03/01 09:18:05;;;;;;;5.72;2.10;;;;;;;3.79;44.34;101655.81;5116660;28;20083;-69
2022/03/01 09:20:34;;;;;;;6.65;2.50;;;;;;;3.83;44.76;101657.50;5116780;28;20484;-68
2022/03/01 09:23:03;;;;;;;4.68;2.10;;;;;;;3.89;44.96;101649.53;5116187;28;20119;-69
2022/03/01 09:25:31;;;;;;;4.15;1.98;;;;;;;3.97;41.02;101645.94;5098364;28;20492;-69
2022/03/01 09:28:00;;;;;;;4.80;2.08;;;;;;;3.94;39.79;101648.56;5115643;28;20400;-69
2022/03/01 09:30:32;;;;;;;5.68;2.60;;;;;;;3.80;41.16;101650.50;5116322;28;20051;-69
2022/03/01 09:33:01;;;;;;;4.80;1.98;;;;;;;3.91;39.45;101643.34;5116376;28;20067;-69
2022/03/01 09:35:32;;;;;;;4.65;1.85;;;;;;;4.10;40.57;101643.13;5116294;28;20400;-69
2022/03/01 09:38:00;;;;;;;5.15;2.60;;;;;;;4.07;40.49;101632.63;5115965;28;20076;-68
2022/03/01 09:40:29;;;;;;;4.60;2.10;;;;;;;4.04;40.38;101641.44;5116305;28;20067;-69
2022/03/01 09:42:57;;;;;;;5.75;1.95;;;;;;;4.15;40.56;101634.28;5115832;28;20128;-69
2022/03/01 09:45:26;;;;;;;8.52;2.13;;;;;;;4.15;40.46;101631.66;5116187;28;20043;-68
2022/03/01 09:47:55;;;;;;;5.85;2.83;;;;;;;4.09;39.54;101629.06;5115619;28;20411;-68
2022/03/01 09:50:28;;;;;;;4.10;2.00;;;;;;;4.08;39.08;101622.03;5115734;28;20078;-68
2022/03/01 09:52:57;;;;;;;4.05;1.90;;;;;;;4.12;39.88;101614.94;5115700;28;20035;-68
2022/03/01 09:55:26;;;;;;;4.25;1.95;;;;;;;4.24;39.72;101617.44;5116023;28;20081;-68
2022/03/01 09:57:56;;;;;;;5.10;2.05;;;;;;;4.28;39.72;101627.06;5115354;28;20044;-68
2022/03/01 10:00:25;;;;;;;5.78;2.33;;;;;;;4.24;39.68;101615.66;5115769;28;20040;-68
2022/03/01 10:02:58;;;;;;;5.13;2.13;;;;;;;4.29;40.02;101612.97;5115673;28;20040;-68
2022/03/01 10:05:35;;;;;;;4.13;2.20;;;;;;;4.32;39.97;101615.56;5115942;28;20049;-68
2022/03/01 10:08:08;;;;;;;4.25;2.20;;;;;;;4.31;39.23;101622.63;5115297;28;20042;-68
2022/03/01 10:10:42;;;;;;;5.18;1.90;;;;;;;4.20;38.62;101602.53;5115530;28;20040;-68
2022/03/01 10:13:13;;;;;;;6.60;2.13;;;;;;;4.25;37.42;101598.94;5116084;28;20442;-69
2022/03/01 10:15:41;;;;;;;4.85;2.13;;;;;;;4.42;38.07;101587.25;5115752;28;20403;-69
2022/03/01 10:18:15;;;;;;;5.57;2.30;;;;;;;4.43;38.71;101581.94;5115655;28;20048;-69
2022/03/01 10:20:46;;;;;;;6.93;2.13;;;;;;;4.61;37.78;101583.47;5115075;28;20042;-70
2022/03/01 10:23:22;;;;;;;4.32;2.03;;;;;;;4.52;37.55;101573.91;5115701;28;20071;-68
2022/03/01 10:25:50;;;;;;;4.00;2.00;;;;;;;4.44;36.92;101570.50;5115198;28;20050;-69
2022/03/01 10:28:31;;;;;;;5.60;2.03;;;;;;;4.50;36.82;101573.06;5115502;28;20127;-69
2022/03/01 10:31:10;;;;;;;5.43;2.10;;;;;;;4.56;37.54;101565.03;5115211;28;20047;-69
2022/03/01 10:33:41;;;;;;;4.80;2.50;;;;;;;4.69;37.42;101552.50;5115391;28;20074;-68
2022/03/01 10:36:10;;;;;;;5.55;2.35;;;;;;;4.90;36.65;101559.22;5115196;28;20055;-69
2022/03/01 10:38:41;;;;;;;6.20;2.35;;;;;;;4.73;36.90;101558.63;5115251;28;20039;-69
2022/03/01 10:41:09;;;;;;;3.85;2.25;;;;;;;4.79;37.16;101548.81;5114205;28;20100;-68
2022/03/01 10:43:39;;;;;;;4.95;2.30;;;;;;;4.81;36.75;101543.50;5114904;28;20067;-68
2022/03/01 10:46:08;;;;;;;4.68;2.42;;;;;;;4.92;36.92;101532.75;5114826;28;20047;-69
2022/03/01 10:48:37;;;;;;;6.57;2.38;;;;;;;4.92;37.30;101535.41;5115059;28;20047;-67
2022/03/01 10:51:09;;;;;;;5.57;2.15;;;;;;;4.88;37.38;101524.88;5114705;28;20059;-68
2022/03/01 10:53:39;;;;;;;4.53;2.38;;;;;;;4.82;36.78;101513.53;5114909;28;20051;-68
2022/03/01 10:56:09;;;;;;;7.68;2.22;;;;;;;4.91;36.61;101516.03;5114600;28;20044;-69
2022/03/01 10:58:39;;;;;;;4.65;2.50;;;;;;;4.89;36.00;101504.59;5114762;28;20330;-68
2022/03/01 11:01:09;;;;;;;5.15;2.60;;;;;;;4.82;36.79;101502.97;5114399;28;20081;-68
2022/03/01 11:03:39;;;;;;;5.50;2.47;;;;;;;4.97;36.26;101508.00;5114532;28;20040;-68
2022/03/01 11:06:11;;;;;;;4.32;2.28;;;;;;;5.05;36.01;101503.47;5114500;28;20096;-68
2022/03/01 11:08:42;;;;;;;5.35;2.20;;;;;;;5.07;35.58;101499.00;5114484;28;20039;-68
2022/03/01 11:11:11;;;;;;;3.90;2.30;;;;;;;5.03;35.70;101489.41;5114427;28;20047;-68
2022/03/01 11:13:41;;;;;;;4.57;2.30;;;;;;;5.20;35.17;101477.63;5114420;28;20445;-68
2022/03/01 11:16:23;;;;;;;4.43;2.38;;;;;;;5.05;35.41;101476.13;5113977;28;20075;-68
2022/03/01 11:18:57;;;;;;;4.75;2.40;;;;;;;5.06;34.67;101476.09;5113905;28;20126;-69
2022/03/01 11:21:27;;;;;;;;;;;;;;;5.01;34.54;101472.66;5114897;28;20392;-68
2022/03/01 11:23:57;;;;;;;4.93;2.22;;;;;;;5.07;34.38;101461.97;5114059;28;19950;-69
2022/03/01 11:26:36;;;;;;;6.50;2.47;;;;;;;5.28;32.97;101463.34;5114225;28;20051;-69
2022/03/01 11:29:09;;;;;;;5.38;2.53;;;;;;;5.51;33.03;101456.75;5113967;28;20118;-69
2022/03/01 11:31:39;;;;;;;6.63;2.40;;;;;;;5.40;32.70;101456.94;5114261;28;20043;-69
2022/03/01 11:34:12;;;;;;;5.25;2.30;;;;;;;5.45;33.12;101447.16;5113786;28;20449;-68
2022/03/01 11:36:49;;;;;;;5.47;2.22;;;;;;;5.24;32.30;101447.56;5114155;28;20040;-68
2022/03/01 11:39:28;;;;;;;7.03;2.63;;;;;;;5.45;32.54;101436.56;5114197;28;20116;-69